createdAt,value
2023-05-11T00:01:57.352Z,101380.06
2023-05-11T00:03:59.356Z,101365.22
2023-05-11T00:06:01.273Z,101372.19
2023-05-11T00:08:02.768Z,101359.44
2023-05-11T00:10:04.458Z,101357.81
2023-05-11T00:12:06.189Z,101369.31
2023-05-11T00:14:07.611Z,101373.50
2023-05-11T00:16:09.280Z,101365.44
2023-05-11T00:18:10.723Z,101361.91
2023-05-11T00:20:12.180Z,101361.97
2023-05-11T00:22:13.869Z,101356.03
2023-05-11T00:24:15.259Z,101354.66
2023-05-11T00:26:16.680Z,101361.91
2023-05-11T00:28:18.501Z,101351.91
2023-05-11T00:30:20.491Z,101364.44
2023-05-11T00:32:22.059Z,101361.84
2023-05-11T00:34:23.734Z,101345.88
2023-05-11T00:36:25.163Z,101367.09
2023-05-11T00:38:26.653Z,101356.28
2023-05-11T00:40:28.371Z,101350.75
2023-05-11T00:42:29.788Z,101366.13
2023-05-11T00:44:31.224Z,101362.50
2023-05-11T00:46:33.341Z,101366.00
2023-05-11T00:48:34.804Z,101372.25
2023-05-11T00:50:36.369Z,101352.13
2023-05-11T00:52:38.042Z,101367.19
2023-05-11T00:54:40.289Z,101354.56
2023-05-11T00:56:42.320Z,101366.91
2023-05-11T00:58:43.960Z,101362.97
2023-05-11T01:00:45.534Z,101368.88
2023-05-11T01:02:47.310Z,101368.16
2023-05-11T01:04:49.157Z,101367.38
2023-05-11T01:07:24.797Z,101368.03
2023-05-11T01:09:38.288Z,101361.44
2023-05-11T01:11:49.334Z,101369.13
2023-05-11T01:13:55.752Z,101362.38
2023-05-11T01:15:57.281Z,101346.75
2023-05-11T01:18:12.001Z,101344.84
2023-05-11T01:20:24.988Z,101346.00
2023-05-11T01:22:51.038Z,101368.44
2023-05-11T01:24:58.400Z,101363.94
2023-05-11T01:27:02.492Z,101366.31
2023-05-11T01:29:12.739Z,101361.38
2023-05-11T01:31:15.742Z,101364.72
2023-05-11T01:33:21.870Z,101345.63
2023-05-11T01:35:25.879Z,101362.75
2023-05-11T01:37:30.412Z,101360.97
2023-05-11T01:39:54.342Z,101364.31
2023-05-11T01:41:58.379Z,101360.34
2023-05-11T01:44:05.206Z,101343.09
2023-05-11T01:46:10.385Z,101361.31
2023-05-11T01:48:18.858Z,101355.47
2023-05-11T01:50:24.324Z,101365.47
2023-05-11T01:52:27.984Z,101362.88
2023-05-11T01:54:30.613Z,101358.94
2023-05-11T01:56:33.818Z,101345.59
2023-05-11T01:58:36.854Z,101350.34
2023-05-11T02:00:38.932Z,101371.56
2023-05-11T02:02:41.764Z,101364.28
2023-05-11T02:04:44.648Z,101355.03
2023-05-11T02:06:48.203Z,101367.81
2023-05-11T02:08:51.023Z,101301.88
2023-05-11T02:10:53.486Z,101350.41
2023-05-11T02:12:56.460Z,101361.75
2023-05-11T02:14:59.270Z,101365.53
2023-05-11T02:17:03.493Z,101362.63
2023-05-11T02:19:07.481Z,101348.28
2023-05-11T02:21:09.852Z,101356.78
2023-05-11T02:23:11.548Z,101336.63
2023-05-11T02:25:13.910Z,101347.56
2023-05-11T02:27:15.676Z,101356.22
2023-05-11T02:29:17.167Z,101357.75
2023-05-11T02:31:28.900Z,101364.75
2023-05-11T02:33:39.248Z,101358.91
2023-05-11T02:35:43.801Z,101356.03
2023-05-11T02:37:47.174Z,101365.06
2023-05-11T02:39:56.011Z,101369.22
2023-05-11T02:42:01.721Z,101374.69
2023-05-11T02:44:04.511Z,101371.56
2023-05-11T02:46:12.666Z,101371.81
2023-05-11T02:48:25.096Z,101375.09
2023-05-11T02:50:28.551Z,101351.25
2023-05-11T02:52:32.162Z,101361.97
2023-05-11T02:54:35.229Z,101363.47
2023-05-11T02:56:37.923Z,101370.94
2023-05-11T02:58:39.623Z,101372.81
2023-05-11T03:00:41.159Z,101366.13
2023-05-11T03:02:42.682Z,101370.94
2023-05-11T03:04:44.151Z,101355.19
2023-05-11T03:06:45.617Z,101379.22
2023-05-11T03:08:47.660Z,101376.63
2023-05-11T03:10:49.624Z,101378.84
2023-05-11T03:12:51.156Z,101384.59
2023-05-11T03:14:53.646Z,101368.25
2023-05-11T03:16:56.568Z,101365.16
2023-05-11T03:18:59.442Z,101377.41
2023-05-11T03:21:02.219Z,101379.09
2023-05-11T03:23:05.266Z,101377.41
2023-05-11T03:25:07.784Z,101374.69
2023-05-11T03:27:11.175Z,101379.94
2023-05-11T03:29:15.244Z,101382.00
2023-05-11T03:31:18.185Z,101386.94
2023-05-11T03:33:19.936Z,101382.06
2023-05-11T03:35:25.884Z,101380.78
2023-05-11T03:37:29.754Z,101386.28
2023-05-11T03:39:33.211Z,101373.41
2023-05-11T03:41:35.159Z,101365.97
2023-05-11T03:43:38.286Z,101386.84
2023-05-11T03:45:42.815Z,101387.41
2023-05-11T03:47:46.603Z,101394.44
2023-05-11T03:49:48.837Z,101394.31
2023-05-11T03:51:50.517Z,101395.97
2023-05-11T03:53:52.015Z,101390.72
2023-05-11T03:55:53.516Z,101399.53
2023-05-11T03:57:55.081Z,101398.16
2023-05-11T03:59:56.651Z,101396.13
2023-05-11T04:01:58.788Z,101396.03
2023-05-11T04:04:00.527Z,101403.44
2023-05-11T04:06:02.324Z,101405.34
2023-05-11T04:08:04.871Z,101397.00
2023-05-11T04:10:07.768Z,101411.19
2023-05-11T04:12:09.468Z,101403.13
2023-05-11T04:14:10.939Z,101405.25
2023-05-11T04:16:12.410Z,101400.09
2023-05-11T04:18:14.022Z,101410.53
2023-05-11T04:20:15.585Z,101390.78
2023-05-11T04:22:17.075Z,101411.47
2023-05-11T04:24:18.702Z,101404.28
2023-05-11T04:26:20.209Z,101412.59
2023-05-11T04:28:21.860Z,101411.59
2023-05-11T04:30:23.612Z,101409.66
2023-05-11T04:32:25.100Z,101415.81
2023-05-11T04:34:26.547Z,101410.00
2023-05-11T04:36:28.110Z,101412.22
2023-05-11T04:38:29.498Z,101415.59
2023-05-11T04:40:31.607Z,101416.81
2023-05-11T04:42:34.305Z,101409.72
2023-05-11T04:44:35.711Z,101409.25
2023-05-11T04:46:37.640Z,101414.91
2023-05-11T04:48:39.214Z,101413.72
2023-05-11T04:50:40.634Z,101394.81
2023-05-11T04:52:42.082Z,101423.81
2023-05-11T04:54:43.634Z,101423.16
2023-05-11T04:56:45.052Z,101426.69
2023-05-11T04:58:46.678Z,101419.78
2023-05-11T05:00:48.346Z,101426.50
2023-05-11T05:02:49.857Z,101421.38
2023-05-11T05:04:51.428Z,101414.19
2023-05-11T05:06:53.053Z,101409.25
2023-05-11T05:08:54.497Z,101421.75
2023-05-11T05:10:55.976Z,101415.69
2023-05-11T05:12:57.549Z,101414.28
2023-05-11T05:14:58.989Z,101414.91
2023-05-11T05:17:00.559Z,101428.72
2023-05-11T05:19:02.435Z,101421.50
2023-05-11T05:21:04.054Z,101416.22
2023-05-11T05:23:05.630Z,101422.53
2023-05-11T05:25:08.162Z,101428.63
2023-05-11T05:27:09.570Z,101376.63
2023-05-11T05:29:11.061Z,101430.75
2023-05-11T05:31:12.746Z,101421.25
2023-05-11T05:33:14.257Z,101428.66
2023-05-11T05:35:15.719Z,101410.81
2023-05-11T05:37:17.361Z,101442.91
2023-05-11T05:39:19.207Z,101440.97
2023-05-11T05:41:20.664Z,101441.69
2023-05-11T05:43:22.256Z,101438.84
2023-05-11T05:45:23.659Z,101431.56
2023-05-11T05:47:25.142Z,101442.63
2023-05-11T05:49:26.635Z,101440.75
2023-05-11T05:51:28.083Z,101443.94
2023-05-11T05:53:29.772Z,101410.72
2023-05-11T05:55:31.301Z,101449.59
2023-05-11T05:57:32.714Z,101443.84
2023-05-11T05:59:34.198Z,101446.06
2023-05-11T06:01:36.044Z,101431.22
2023-05-11T06:03:37.660Z,101436.91
2023-05-11T06:05:39.367Z,101442.09
2023-05-11T06:07:40.933Z,101446.78
2023-05-11T06:09:42.372Z,101454.63
2023-05-11T06:11:43.858Z,101434.19
2023-05-11T06:13:45.544Z,101448.34
2023-05-11T06:15:47.012Z,101458.28
2023-05-11T06:17:48.575Z,101456.44
2023-05-11T06:19:50.548Z,101454.88
2023-05-11T06:21:51.934Z,101439.19
2023-05-11T06:23:53.437Z,101460.34
2023-05-11T06:25:55.009Z,101447.09
2023-05-11T06:27:56.411Z,101448.84
2023-05-11T06:29:57.966Z,101447.53
2023-05-11T06:31:59.567Z,101444.41
2023-05-11T06:34:00.976Z,101464.34
2023-05-11T06:36:06.457Z,101465.13
2023-05-11T06:38:08.081Z,101458.84
2023-05-11T06:40:09.957Z,101448.97
2023-05-11T06:42:11.516Z,101456.38
2023-05-11T06:44:13.031Z,101463.13
2023-05-11T06:46:14.543Z,101464.72
2023-05-11T06:48:16.160Z,101462.75
2023-05-11T06:50:20.146Z,101459.22
2023-05-11T06:52:22.648Z,101462.59
2023-05-11T06:54:24.140Z,101451.81
2023-05-11T06:56:25.697Z,101464.06
2023-05-11T06:58:27.174Z,101447.34
2023-05-11T07:00:28.670Z,101464.84
2023-05-11T07:02:30.324Z,101456.81
2023-05-11T07:04:31.837Z,101448.84
2023-05-11T07:06:33.450Z,101453.75
2023-05-11T07:08:35.072Z,101459.72
2023-05-11T07:10:36.691Z,101458.50
2023-05-11T07:12:38.428Z,101470.81
2023-05-11T07:14:39.839Z,101460.63
2023-05-11T07:16:41.257Z,101463.31
2023-05-11T07:18:42.882Z,101457.31
2023-05-11T07:20:44.432Z,101466.09
2023-05-11T07:22:45.853Z,101465.75
2023-05-11T07:24:47.397Z,101453.50
2023-05-11T07:26:48.932Z,101469.00
2023-05-11T07:28:50.367Z,101464.97
2023-05-11T07:30:51.788Z,101466.38
2023-05-11T07:32:53.240Z,101456.16
2023-05-11T07:34:54.703Z,101462.75
2023-05-11T07:36:56.203Z,101454.00
2023-05-11T07:38:57.715Z,101444.78
2023-05-11T07:40:59.496Z,101462.75
2023-05-11T07:43:01.063Z,101448.50
2023-05-11T07:45:02.653Z,101451.06
2023-05-11T07:47:04.111Z,101445.94
2023-05-11T07:49:15.729Z,101456.00
2023-05-11T07:51:22.172Z,101453.41
2023-05-11T07:53:23.752Z,101448.84
2023-05-11T07:55:25.617Z,101445.38
2023-05-11T07:57:27.259Z,101441.13
2023-05-11T07:59:28.661Z,101451.84
2023-05-11T08:01:30.302Z,101435.56
2023-05-11T08:03:31.856Z,101439.34
2023-05-11T08:05:33.456Z,101444.28
2023-05-11T08:07:34.925Z,101440.22
2023-05-11T08:09:36.446Z,101452.22
2023-05-11T08:11:37.845Z,101450.22
2023-05-11T08:13:39.336Z,101454.47
2023-05-11T08:15:40.907Z,101442.41
2023-05-11T08:17:42.330Z,101438.19
2023-05-11T08:19:44.013Z,101435.31
2023-05-11T08:21:45.561Z,101448.56
2023-05-11T08:23:46.960Z,101436.53
2023-05-11T08:25:55.674Z,101431.03
2023-05-11T08:27:57.375Z,101441.06
2023-05-11T08:30:02.374Z,101436.22
2023-05-11T08:32:04.116Z,101425.00
2023-05-11T08:34:18.578Z,101438.69
2023-05-11T08:36:21.064Z,101435.84
2023-05-11T08:38:22.564Z,101430.19
2023-05-11T08:40:27.487Z,101434.84
2023-05-11T08:42:33.791Z,101423.97
2023-05-11T08:44:35.661Z,101439.41
2023-05-11T08:46:42.048Z,101437.34
2023-05-11T08:48:44.580Z,101411.66
2023-05-11T08:50:46.190Z,101443.63
2023-05-11T08:52:47.754Z,101424.25
2023-05-11T08:54:49.231Z,101430.31
2023-05-11T08:56:51.222Z,101412.94
2023-05-11T08:58:57.650Z,101436.78
2023-05-11T09:00:59.479Z,101417.78
2023-05-11T09:03:01.364Z,101427.34
2023-05-11T09:05:04.022Z,101429.28
2023-05-11T09:07:05.804Z,101428.13
2023-05-11T09:09:08.032Z,101394.22
2023-05-11T09:11:10.548Z,101417.88
2023-05-11T09:13:12.062Z,101442.81
2023-05-11T09:15:13.913Z,101434.13
2023-05-11T09:17:15.461Z,101431.53
2023-05-11T09:19:17.068Z,101427.63
2023-05-11T09:21:19.523Z,101422.44
2023-05-11T09:23:25.496Z,101415.53
2023-05-11T09:25:31.776Z,101418.44
2023-05-11T09:27:33.268Z,101422.41
2023-05-11T09:29:34.738Z,101423.72
2023-05-11T09:31:47.241Z,101423.81
2023-05-11T09:33:48.928Z,101420.56
2023-05-11T09:35:50.415Z,101431.09
2023-05-11T09:38:08.524Z,101420.84
2023-05-11T09:40:26.424Z,101429.03
2023-05-11T09:42:29.960Z,101405.81
2023-05-11T09:44:31.965Z,101431.19
2023-05-11T09:46:33.974Z,101415.56
2023-05-11T09:48:35.472Z,101420.06
2023-05-11T09:50:36.894Z,101414.88
2023-05-11T09:52:50.067Z,101413.91
2023-05-11T09:54:52.152Z,101416.25
2023-05-11T09:56:54.892Z,101421.56
2023-05-11T09:58:56.517Z,101422.53
2023-05-11T10:00:57.961Z,101418.84
2023-05-11T10:03:03.896Z,101410.34
2023-05-11T10:05:12.314Z,101418.94
2023-05-11T10:07:33.620Z,101405.13
2023-05-11T10:09:38.277Z,101401.31
2023-05-11T10:11:46.426Z,101388.78
2023-05-11T10:13:48.372Z,101407.81
2023-05-11T10:15:55.011Z,101396.06
2023-05-11T10:17:58.144Z,101409.63
2023-05-11T10:20:01.327Z,101392.19
2023-05-11T10:22:03.259Z,101402.34
2023-05-11T10:24:05.408Z,101394.84
2023-05-11T10:26:07.294Z,101380.47
2023-05-11T10:28:09.606Z,101390.22
2023-05-11T10:30:11.948Z,101380.47
2023-05-11T10:32:13.800Z,101391.53
2023-05-11T10:34:16.292Z,101358.91
2023-05-11T10:36:19.531Z,101370.69
2023-05-11T10:38:21.347Z,101367.28
2023-05-11T10:40:22.901Z,101375.63
2023-05-11T10:42:24.499Z,101375.28
2023-05-11T10:44:50.813Z,101379.31
2023-05-11T10:47:12.448Z,101374.25
2023-05-11T10:49:32.098Z,101381.16
2023-05-11T10:51:46.095Z,101363.16
2023-05-11T10:53:53.279Z,101372.91
2023-05-11T10:56:32.724Z,101360.28
2023-05-11T10:59:01.804Z,101366.50
2023-05-11T11:01:24.468Z,101372.50
2023-05-11T11:03:26.104Z,101375.84
2023-05-11T11:05:35.411Z,101371.72
2023-05-11T11:08:02.631Z,101364.81
2023-05-11T11:10:04.359Z,101351.47
2023-05-11T11:12:09.838Z,101353.34
2023-05-11T11:14:11.889Z,101366.88
2023-05-11T11:16:15.612Z,101352.13
2023-05-11T11:18:23.038Z,101352.34
2023-05-11T11:20:45.885Z,101366.88
2023-05-11T11:22:47.575Z,101355.69
2023-05-11T11:24:49.094Z,101367.91
2023-05-11T11:26:50.709Z,101346.47
2023-05-11T11:28:55.065Z,101357.66
2023-05-11T11:31:25.577Z,101366.84
2023-05-11T11:33:30.066Z,101358.72
2023-05-11T11:35:40.498Z,101353.91
2023-05-11T11:38:01.956Z,101362.16
2023-05-11T11:40:13.825Z,101358.81
2023-05-11T11:42:18.862Z,101361.16
2023-05-11T11:44:21.409Z,101358.22
2023-05-11T11:46:27.488Z,101353.72
2023-05-11T11:48:30.622Z,101352.56
2023-05-11T11:50:33.490Z,101330.19
2023-05-11T11:52:35.057Z,101351.44
2023-05-11T11:54:37.600Z,101338.31
2023-05-11T11:56:40.362Z,101351.22
2023-05-11T11:58:41.997Z,101359.00
2023-05-11T12:00:47.215Z,101349.81
2023-05-11T12:02:48.724Z,101336.06
2023-05-11T12:05:12.260Z,101350.50
2023-05-11T12:07:16.042Z,101334.38
2023-05-11T12:09:18.832Z,101358.22
2023-05-11T12:11:21.517Z,101336.94
2023-05-11T12:13:24.725Z,101344.41
2023-05-11T12:15:28.520Z,101352.50
2023-05-11T12:17:30.201Z,101344.06
2023-05-11T12:19:31.668Z,101346.97
2023-05-11T12:21:33.121Z,101348.47
2023-05-11T12:23:34.611Z,101345.72
2023-05-11T12:25:36.270Z,101337.88
2023-05-11T12:27:55.693Z,101338.75
2023-05-11T12:29:57.399Z,101328.03
2023-05-11T12:31:59.595Z,101334.69
2023-05-11T12:34:01.027Z,101319.75
2023-05-11T12:36:02.525Z,101343.25
2023-05-11T12:38:03.950Z,101337.75
2023-05-11T12:40:10.391Z,101318.00
2023-05-11T12:42:18.762Z,101320.50
2023-05-11T12:44:22.323Z,101329.22
2023-05-11T12:46:23.955Z,101324.13
2023-05-11T12:48:25.703Z,101304.00
2023-05-11T12:50:27.105Z,101316.31
2023-05-11T12:52:28.508Z,101311.72
2023-05-11T12:54:33.745Z,101314.78
2023-05-11T12:56:45.725Z,101317.28
2023-05-11T12:58:47.149Z,101311.41
2023-05-11T13:00:59.173Z,101311.88
2023-05-11T13:03:00.736Z,101304.41
2023-05-11T13:05:12.608Z,101302.56
2023-05-11T13:07:23.703Z,101279.66
2023-05-11T13:09:26.600Z,101306.78
2023-05-11T13:11:28.008Z,101297.94
2023-05-11T13:13:29.640Z,101305.75
2023-05-11T13:15:31.229Z,101299.16
2023-05-11T13:17:37.877Z,101292.69
2023-05-11T13:19:39.633Z,101303.63
2023-05-11T13:21:46.306Z,101294.66
2023-05-11T13:23:51.536Z,101297.66
2023-05-11T13:25:53.469Z,101291.03
2023-05-11T13:27:54.874Z,101293.28
2023-05-11T13:29:56.282Z,101296.63
2023-05-11T13:31:57.891Z,101281.28
2023-05-11T13:33:59.302Z,101270.00
2023-05-11T13:36:01.658Z,101281.69
2023-05-11T13:38:03.332Z,101292.28
2023-05-11T13:40:05.949Z,101285.97
2023-05-11T13:42:07.404Z,101272.81
2023-05-11T13:44:08.931Z,101282.25
2023-05-11T13:46:10.373Z,101275.88
2023-05-11T13:48:11.827Z,101269.97
2023-05-11T13:50:13.332Z,101268.06
2023-05-11T13:52:14.747Z,101281.34
2023-05-11T13:54:16.206Z,101278.38
2023-05-11T13:56:17.695Z,101261.38
2023-05-11T13:58:19.210Z,101269.66
2023-05-11T14:00:20.877Z,101280.06
2023-05-11T14:02:22.542Z,101256.97
2023-05-11T14:04:23.971Z,101272.25
2023-05-11T14:06:25.770Z,101266.78
2023-05-11T14:08:27.427Z,101277.47
2023-05-11T14:10:28.873Z,101282.31
2023-05-11T14:12:30.297Z,101275.84
2023-05-11T14:14:32.053Z,101275.53
2023-05-11T14:16:33.483Z,101280.38
2023-05-11T14:18:35.011Z,101276.84
2023-05-11T14:20:36.897Z,101260.47
2023-05-11T14:22:38.297Z,101269.13
2023-05-11T14:24:39.732Z,101252.22
2023-05-11T14:26:41.653Z,101247.25
2023-05-11T14:28:43.140Z,101272.84
2023-05-11T14:30:44.822Z,101268.09
2023-05-11T14:32:46.732Z,101261.00
2023-05-11T14:34:48.446Z,101263.56
2023-05-11T14:36:49.953Z,101255.00
2023-05-11T14:38:51.606Z,101249.22
2023-05-11T14:40:53.023Z,101256.91
2023-05-11T14:42:54.458Z,101263.16
2023-05-11T14:44:55.879Z,101266.03
2023-05-11T14:46:57.541Z,101247.81
2023-05-11T14:48:59.114Z,101256.19
2023-05-11T14:51:00.560Z,101248.28
2023-05-11T14:53:02.035Z,101252.19
2023-05-11T14:55:03.617Z,101261.50
2023-05-11T14:57:05.592Z,101261.19
2023-05-11T14:59:07.269Z,101262.78
2023-05-11T15:01:08.740Z,101265.22
2023-05-11T15:03:10.444Z,101250.59
2023-05-11T15:05:11.880Z,101266.97
2023-05-11T15:07:13.272Z,101264.72
2023-05-11T15:09:15.120Z,101251.78
2023-05-11T15:11:17.704Z,101256.47
2023-05-11T15:13:20.959Z,101261.28
2023-05-11T15:15:23.770Z,101260.81
2023-05-11T15:17:26.623Z,101264.06
2023-05-11T15:19:28.048Z,101265.41
2023-05-11T15:21:29.672Z,101265.41
2023-05-11T15:23:31.083Z,101269.72
2023-05-11T15:25:33.056Z,101233.94
2023-05-11T15:27:34.677Z,101262.19
2023-05-11T15:29:36.330Z,101250.19
2023-05-11T15:31:37.840Z,101251.09
2023-05-11T15:33:39.454Z,101255.34
2023-05-11T15:35:41.586Z,101261.19
2023-05-11T15:37:43.008Z,101264.81
2023-05-11T15:39:44.656Z,101266.44
2023-05-11T15:41:46.111Z,101256.13
2023-05-11T15:43:47.528Z,101263.53
2023-05-11T15:45:49.118Z,101256.00
2023-05-11T15:47:50.645Z,101259.50
2023-05-11T15:49:52.102Z,101270.56
2023-05-11T15:51:53.892Z,101272.09
2023-05-11T15:53:55.369Z,101270.81
2023-05-11T15:55:57.153Z,101266.78
2023-05-11T15:57:58.847Z,101274.34
2023-05-11T16:00:00.351Z,101254.09
2023-05-11T16:02:01.795Z,101260.84
2023-05-11T16:04:03.300Z,101267.72
2023-05-11T16:06:05.256Z,101275.75
2023-05-11T16:08:06.775Z,101272.84
2023-05-11T16:10:09.513Z,101265.13
2023-05-11T16:12:10.925Z,101271.97
2023-05-11T16:14:12.355Z,101260.78
2023-05-11T16:16:14.197Z,101271.19
2023-05-11T16:18:15.673Z,101261.03
2023-05-11T16:20:17.229Z,101261.16
2023-05-11T16:22:18.925Z,101260.91
2023-05-11T16:24:20.342Z,101266.59
2023-05-11T16:26:21.831Z,101262.22
2023-05-11T16:28:23.459Z,101264.78
2023-05-11T16:30:25.887Z,101262.13
2023-05-11T16:32:27.541Z,101263.53
2023-05-11T16:34:29.152Z,101269.44
2023-05-11T16:36:30.591Z,101251.34
2023-05-11T16:38:32.092Z,101254.25
2023-05-11T16:40:33.501Z,101267.84
2023-05-11T16:42:34.953Z,101256.84
2023-05-11T16:44:36.485Z,101264.44
2023-05-11T16:46:38.018Z,101263.44
2023-05-11T16:48:39.470Z,101262.56
2023-05-11T16:50:41.002Z,101266.75
2023-05-11T16:52:42.591Z,101258.16
2023-05-11T16:54:44.034Z,101265.91
2023-05-11T16:56:45.466Z,101251.75
2023-05-11T16:58:46.873Z,101266.69
2023-05-11T17:00:48.345Z,101255.47
2023-05-11T17:02:49.865Z,101257.63
2023-05-11T17:04:51.594Z,101267.25
2023-05-11T17:06:53.585Z,101273.53
2023-05-11T17:08:54.982Z,101238.91
2023-05-11T17:10:56.861Z,101264.13
2023-05-11T17:12:58.361Z,101254.31
2023-05-11T17:14:59.764Z,101269.03
2023-05-11T17:17:01.302Z,101278.66
2023-05-11T17:19:02.813Z,101265.53
2023-05-11T17:21:04.278Z,101260.75
2023-05-11T17:23:05.754Z,101276.56
2023-05-11T17:25:07.824Z,101280.81
2023-05-11T17:27:09.342Z,101279.28
2023-05-11T17:29:12.089Z,101264.63
2023-05-11T17:31:15.075Z,101269.47
2023-05-11T17:33:16.709Z,101285.69
2023-05-11T17:35:18.362Z,101274.00
2023-05-11T17:37:31.374Z,101288.56
2023-05-11T17:39:34.210Z,101291.31
2023-05-11T17:41:35.772Z,101291.13
2023-05-11T17:43:37.189Z,101289.63
2023-05-11T17:45:38.685Z,101290.94
2023-05-11T17:47:40.382Z,101264.09
2023-05-11T17:49:41.897Z,101279.69
2023-05-11T17:51:43.318Z,101295.25
2023-05-11T17:53:45.221Z,101284.28
2023-05-11T17:55:46.631Z,101285.38
2023-05-11T17:57:48.012Z,101300.59
2023-05-11T17:59:49.429Z,101301.03
2023-05-11T18:01:50.871Z,101305.78
2023-05-11T18:03:52.484Z,101301.09
2023-05-11T18:05:54.162Z,101300.19
2023-05-11T18:07:55.676Z,101309.97
2023-05-11T18:09:57.085Z,101303.19
2023-05-11T18:11:59.396Z,101297.31
2023-05-11T18:14:00.799Z,101312.94
2023-05-11T18:16:02.799Z,101300.63
2023-05-11T18:18:05.064Z,101304.84
2023-05-11T18:20:07.735Z,101313.06
2023-05-11T18:22:10.058Z,101313.47
2023-05-11T18:24:11.466Z,101322.25
2023-05-11T18:26:12.865Z,101299.31
2023-05-11T18:28:14.563Z,101299.84
2023-05-11T18:30:16.023Z,101326.44
2023-05-11T18:32:17.474Z,101331.50
2023-05-11T18:34:18.875Z,101314.13
2023-05-11T18:36:20.432Z,101333.69
2023-05-11T18:38:21.831Z,101321.50
2023-05-11T18:40:23.353Z,101312.50
2023-05-11T18:42:24.832Z,101315.84
2023-05-11T18:44:26.240Z,101333.06
2023-05-11T18:46:27.728Z,101321.56
2023-05-11T18:48:29.141Z,101337.78
2023-05-11T18:50:30.588Z,101348.66
2023-05-11T18:52:32.382Z,101325.44
2023-05-11T18:54:33.823Z,101327.75
2023-05-11T18:56:35.230Z,101351.00
2023-05-11T18:58:37.231Z,101354.50
2023-05-11T19:00:38.674Z,101348.66
2023-05-11T19:02:40.225Z,101351.16
2023-05-11T19:04:41.823Z,101360.16
2023-05-11T19:06:43.222Z,101356.31
2023-05-11T19:08:44.645Z,101361.94
2023-05-11T19:10:46.311Z,101357.63
2023-05-11T19:12:47.809Z,101361.44
2023-05-11T19:14:49.308Z,101360.28
2023-05-11T19:16:51.200Z,101355.41
2023-05-11T19:18:52.665Z,101370.94
2023-05-11T19:20:54.222Z,101353.69
2023-05-11T19:22:57.491Z,101369.91
2023-05-11T19:24:59.091Z,101376.56
2023-05-11T19:27:07.411Z,101374.56
2023-05-11T19:29:09.738Z,101383.88
2023-05-11T19:31:11.214Z,101382.22
2023-05-11T19:33:12.766Z,101386.91
2023-05-11T19:35:14.287Z,101364.66
2023-05-11T19:37:15.778Z,101382.50
2023-05-11T19:39:17.189Z,101372.75
2023-05-11T19:41:18.679Z,101373.41
2023-05-11T19:43:20.175Z,101388.47
2023-05-11T19:45:21.578Z,101390.78
2023-05-11T19:47:23.137Z,101390.59
2023-05-11T19:49:24.762Z,101380.91
2023-05-11T19:51:26.167Z,101395.09
2023-05-11T19:53:27.995Z,101373.53
2023-05-11T19:55:29.436Z,101376.16
2023-05-11T19:57:31.699Z,101394.91
2023-05-11T19:59:33.279Z,101386.34
2023-05-11T20:01:34.778Z,101388.44
2023-05-11T20:03:36.324Z,101380.09
2023-05-11T20:05:37.881Z,101392.44
2023-05-11T20:07:39.317Z,101393.22
2023-05-11T20:09:40.774Z,101392.22
2023-05-11T20:11:42.378Z,101387.53
2023-05-11T20:13:45.021Z,101392.09
2023-05-11T20:15:46.680Z,101382.41
2023-05-11T20:17:48.217Z,101385.22
2023-05-11T20:19:49.670Z,101390.19
2023-05-11T20:21:51.060Z,101392.59
2023-05-11T20:23:52.441Z,101396.88
2023-05-11T20:25:53.886Z,101375.41
2023-05-11T20:27:55.295Z,101397.81
2023-05-11T20:29:56.858Z,101411.78
2023-05-11T20:31:58.339Z,101415.59
2023-05-11T20:36:04.323Z,101416.81
2023-05-11T20:38:05.748Z,101413.75
2023-05-11T20:40:07.942Z,101391.50
2023-05-11T20:42:09.439Z,101401.88
2023-05-11T20:44:10.811Z,101407.91
2023-05-11T20:46:12.305Z,101414.91
2023-05-11T20:48:13.880Z,101396.69
2023-05-11T20:50:15.355Z,101416.34
2023-05-11T20:52:16.765Z,101410.66
2023-05-11T20:54:18.342Z,101410.44
2023-05-11T20:56:19.764Z,101416.59
2023-05-11T20:58:21.146Z,101413.91
2023-05-11T21:00:23.164Z,101413.22
2023-05-11T21:02:24.834Z,101414.06
2023-05-11T21:04:26.315Z,101418.72
2023-05-11T21:06:27.791Z,101411.66
2023-05-11T21:08:29.199Z,101432.91
2023-05-11T21:10:31.220Z,101428.41
2023-05-11T21:12:32.699Z,101408.47
2023-05-11T21:14:34.206Z,101429.38
2023-05-11T21:16:35.717Z,101434.28
2023-05-11T21:18:37.319Z,101437.44
2023-05-11T21:20:38.790Z,101439.34
2023-05-11T21:22:40.214Z,101418.34
2023-05-11T21:24:41.699Z,101428.75
2023-05-11T21:26:43.113Z,101434.38
2023-05-11T21:28:44.529Z,101441.38
2023-05-11T21:30:46.326Z,101441.50
2023-05-11T21:32:47.810Z,101439.56
2023-05-11T21:34:49.714Z,101439.81
2023-05-11T21:36:51.264Z,101434.50
2023-05-11T21:38:52.661Z,101437.81
2023-05-11T21:40:55.708Z,101443.66
2023-05-11T21:42:57.292Z,101423.09
2023-05-11T21:44:58.691Z,101436.91
2023-05-11T21:47:00.175Z,101439.25
2023-05-11T21:49:01.706Z,101430.56
2023-05-11T21:51:03.137Z,101443.28
2023-05-11T21:53:05.145Z,101442.56
2023-05-11T21:55:07.113Z,101442.81
2023-05-11T21:57:08.508Z,101453.28
2023-05-11T21:59:09.940Z,101441.38
2023-05-11T22:01:11.529Z,101444.72
2023-05-11T22:03:12.994Z,101448.34
2023-05-11T22:05:14.780Z,101441.28
2023-05-11T22:07:16.270Z,101441.81
2023-05-11T22:09:17.694Z,101445.44
2023-05-11T22:11:19.134Z,101439.47
2023-05-11T22:13:21.032Z,101445.97
2023-05-11T22:15:22.697Z,101459.84
2023-05-11T22:17:24.410Z,101446.75
2023-05-11T22:19:26.067Z,101447.00
2023-05-11T22:21:27.458Z,101446.13
2023-05-11T22:23:28.925Z,101457.97
2023-05-11T22:25:30.420Z,101468.19
2023-05-11T22:27:31.872Z,101461.97
2023-05-11T22:29:33.261Z,101466.19
2023-05-11T22:31:34.881Z,101467.38
2023-05-11T22:33:36.354Z,101468.53
2023-05-11T22:35:37.771Z,101468.13
2023-05-11T22:37:39.289Z,101461.66
2023-05-11T22:39:40.684Z,101465.75
2023-05-11T22:41:42.068Z,101461.28
2023-05-11T22:43:43.666Z,101480.09
2023-05-11T22:45:45.295Z,101475.22
2023-05-11T22:47:46.769Z,101468.94
2023-05-11T22:49:48.403Z,101459.59
2023-05-11T22:51:49.818Z,101466.91
2023-05-11T22:53:51.231Z,101461.19
2023-05-11T22:55:52.923Z,101462.63
2023-05-11T22:57:54.324Z,101464.16
2023-05-11T22:59:55.705Z,101469.91
2023-05-11T23:01:57.212Z,101459.28
2023-05-11T23:03:58.714Z,101484.03
2023-05-11T23:06:00.121Z,101476.06
2023-05-11T23:08:01.759Z,101455.63
2023-05-11T23:10:03.279Z,101473.16
2023-05-11T23:12:04.844Z,101474.53
2023-05-11T23:14:06.409Z,101474.69
2023-05-11T23:16:07.966Z,101450.75
2023-05-11T23:18:09.539Z,101456.06
2023-05-11T23:20:11.754Z,101478.88
2023-05-11T23:22:13.165Z,101474.97
2023-05-11T23:24:14.593Z,101472.44
2023-05-11T23:26:16.047Z,101482.66